Terminal Aerodrome Forecast
Issued by NWS Flagstaff, AZ

Home | Current Version | Previous Version | Text Only | Print | Product List | Glossary On
Versions: 1 2 3 4 5 6 7 8 9 10 11 12 13
000
FTUS45 KFGZ 032320
TAFFLG
TAF
KFLG 032320Z 0400/0424 22012G19KT P6SM FEW060 SCT100
     FM040300 22004KT P6SM FEW040 BKN200
     FM041800 22011G18KT P6SM FEW050 BKN200=

USA.gov is the U.S. government's official web portal to all federal, state and local government web resources and services.